createdAt,value
2022-09-18T00:00:39.820Z,77.55
2022-09-18T00:02:02.785Z,77.39
2022-09-18T00:03:04.765Z,77.49
2022-09-18T00:04:08.953Z,77.68
2022-09-18T00:05:10.615Z,77.95
2022-09-18T00:06:15.904Z,77.86
2022-09-18T00:07:18.622Z,77.93
2022-09-18T00:08:21.166Z,78.08
2022-09-18T00:09:22.803Z,78.05
2022-09-18T00:10:25.319Z,78.32
2022-09-18T00:11:32.955Z,78.41
2022-09-18T00:12:35.497Z,78.33
2022-09-18T00:13:39.089Z,78.34
2022-09-18T00:14:41.808Z,78.42
2022-09-18T00:15:43.401Z,78.59
2022-09-18T00:16:46.138Z,78.44
2022-09-18T00:17:48.221Z,78.36
2022-09-18T00:18:50.802Z,78.53
2022-09-18T00:19:52.400Z,78.25
2022-09-18T00:21:04.980Z,78.51
2022-09-18T00:22:11.075Z,78.54
2022-09-18T00:23:12.600Z,78.46
2022-09-18T00:24:17.397Z,78.78
2022-09-18T00:25:18.962Z,78.58
2022-09-18T00:26:21.917Z,79.20
2022-09-18T00:27:24.818Z,78.82
2022-09-18T00:28:27.609Z,79.19
2022-09-18T00:29:29.457Z,78.86
2022-09-18T00:30:31.976Z,79.15
2022-09-18T00:31:35.423Z,79.17
2022-09-18T00:32:37.959Z,79.11
2022-09-18T00:33:40.166Z,79.45
2022-09-18T00:34:42.681Z,79.28
2022-09-18T00:35:45.151Z,78.95
2022-09-18T00:36:47.656Z,79.40
2022-09-18T00:37:49.191Z,79.29
2022-09-18T00:38:51.956Z,78.83
2022-09-18T00:39:53.546Z,79.27
2022-09-18T00:40:57.204Z,79.18
2022-09-18T00:41:58.766Z,78.93
2022-09-18T00:43:21.968Z,79.36
2022-09-18T00:44:36.707Z,79.27
2022-09-18T00:45:39.261Z,79.06
2022-09-18T00:46:44.135Z,79.42
2022-09-18T00:47:49.951Z,79.26
2022-09-18T00:48:59.873Z,78.87
2022-09-18T00:50:11.389Z,79.18
2022-09-18T00:51:14.586Z,79.32
2022-09-18T00:52:19.109Z,79.04
2022-09-18T00:53:21.038Z,79.27
2022-09-18T00:54:29.202Z,79.59
2022-09-18T00:55:33.880Z,79.44
2022-09-18T00:56:38.166Z,79.38
2022-09-18T00:57:45.708Z,79.21
2022-09-18T00:58:50.689Z,79.50
2022-09-18T00:59:53.215Z,79.58
2022-09-18T01:00:56.175Z,79.77
2022-09-18T01:01:59.632Z,79.53
2022-09-18T01:03:02.351Z,79.28
2022-09-18T01:04:04.203Z,79.56
2022-09-18T01:05:08.586Z,79.67
2022-09-18T01:06:14.007Z,79.50
2022-09-18T01:07:29.061Z,79.80
2022-09-18T01:08:44.073Z,79.59
2022-09-18T01:09:56.951Z,79.64
2022-09-18T01:11:10.187Z,79.64
2022-09-18T01:12:22.369Z,79.67
2022-09-18T01:13:34.400Z,79.49
2022-09-18T01:14:45.012Z,79.63
2022-09-18T01:15:51.035Z,79.53
2022-09-18T01:17:01.921Z,79.62
2022-09-18T01:18:14.911Z,79.40
2022-09-18T01:19:38.128Z,79.63
2022-09-18T01:21:01.190Z,79.58
2022-09-18T01:22:16.898Z,79.56
2022-09-18T01:23:51.994Z,79.43
2022-09-18T01:25:16.437Z,79.60
2022-09-18T01:26:29.682Z,79.61
2022-09-18T01:27:40.497Z,79.63
2022-09-18T01:28:48.251Z,79.63
2022-09-18T01:30:01.132Z,79.59
2022-09-18T01:31:06.473Z,79.61
2022-09-18T01:32:16.629Z,79.59
2022-09-18T01:33:26.754Z,79.66
2022-09-18T01:34:33.068Z,79.70
2022-09-18T01:35:42.268Z,79.53
2022-09-18T01:36:50.024Z,79.69
2022-09-18T01:37:58.790Z,79.58
2022-09-18T01:39:12.727Z,79.56
2022-09-18T01:40:21.478Z,79.44
2022-09-18T01:41:24.924Z,79.39
2022-09-18T01:42:30.660Z,79.51
2022-09-18T01:43:34.788Z,79.74
2022-09-18T01:44:41.992Z,79.72
2022-09-18T01:45:46.668Z,79.51
2022-09-18T01:46:51.076Z,79.44
2022-09-18T01:47:56.992Z,79.44
2022-09-18T01:49:05.341Z,79.72
2022-09-18T01:50:10.308Z,79.67
2022-09-18T01:51:18.344Z,79.68
2022-09-18T01:52:26.062Z,79.56
2022-09-18T01:53:32.378Z,79.51
2022-09-18T01:54:38.724Z,79.74
2022-09-18T01:55:43.602Z,79.66
2022-09-18T01:56:50.115Z,80.01
2022-09-18T01:57:58.430Z,79.62
2022-09-18T01:59:04.545Z,79.96
2022-09-18T02:00:11.316Z,79.61
2022-09-18T02:01:18.393Z,79.75
2022-09-18T02:02:25.018Z,79.79
2022-09-18T02:03:29.236Z,79.53
2022-09-18T02:04:37.064Z,79.97
2022-09-18T02:05:43.304Z,79.85
2022-09-18T02:06:50.843Z,79.83
2022-09-18T02:08:02.611Z,80.00
2022-09-18T02:09:06.116Z,79.95
2022-09-18T02:10:08.363Z,79.95
2022-09-18T02:11:13.539Z,79.84
2022-09-18T02:12:20.637Z,79.98
2022-09-18T02:13:27.706Z,79.95
2022-09-18T02:14:33.495Z,80.11
2022-09-18T02:15:41.613Z,80.07
2022-09-18T02:16:45.541Z,80.20
2022-09-18T02:17:54.859Z,80.22
2022-09-18T02:18:58.006Z,79.89
2022-09-18T02:20:05.214Z,80.24
2022-09-18T02:21:10.429Z,80.21
2022-09-18T02:22:17.248Z,80.37
2022-09-18T02:23:20.314Z,80.49
2022-09-18T02:24:28.361Z,80.44
2022-09-18T02:25:35.399Z,80.60
2022-09-18T02:26:42.119Z,80.65
2022-09-18T02:27:44.792Z,80.75
2022-09-18T02:28:49.220Z,80.85
2022-09-18T02:29:53.744Z,80.95
2022-09-18T02:30:58.349Z,80.75
2022-09-18T02:32:02.248Z,81.14
2022-09-18T02:33:03.939Z,81.25
2022-09-18T02:34:08.231Z,81.18
2022-09-18T02:35:11.025Z,81.26
2022-09-18T02:36:39.820Z,81.26
2022-09-18T02:37:54.526Z,80.98
2022-09-18T02:39:08.334Z,81.30
2022-09-18T02:40:21.776Z,81.30
2022-09-18T02:41:34.734Z,81.53
2022-09-18T02:42:44.507Z,81.71
2022-09-18T02:43:54.366Z,81.81
2022-09-18T02:45:03.241Z,81.55
2022-09-18T02:46:17.783Z,81.60
2022-09-18T02:47:30.269Z,81.52
2022-09-18T02:48:48.544Z,81.73
2022-09-18T02:50:00.084Z,81.62
2022-09-18T02:51:11.400Z,81.84
2022-09-18T02:52:19.444Z,82.04
2022-09-18T02:53:28.461Z,81.90
2022-09-18T02:54:35.689Z,82.20
2022-09-18T02:55:45.321Z,82.08
2022-09-18T02:56:51.165Z,82.13
2022-09-18T02:57:59.422Z,82.14
2022-09-18T02:59:06.289Z,82.07
2022-09-18T03:00:12.420Z,82.32
2022-09-18T03:01:18.238Z,82.33
2022-09-18T03:02:23.704Z,82.55
2022-09-18T03:03:27.697Z,82.45
2022-09-18T03:04:32.441Z,82.32
2022-09-18T03:05:34.023Z,82.10
2022-09-18T03:06:36.522Z,82.46
2022-09-18T03:07:38.257Z,82.50
2022-09-18T03:08:40.736Z,82.37
2022-09-18T03:09:42.680Z,82.42
2022-09-18T03:10:45.168Z,82.52
2022-09-18T03:11:46.763Z,82.42
2022-09-18T03:12:49.328Z,82.26
2022-09-18T03:13:51.139Z,82.55
2022-09-18T03:14:53.603Z,82.46
2022-09-18T03:15:55.597Z,82.64
2022-09-18T03:16:59.453Z,82.65
2022-09-18T03:18:01.354Z,82.71
2022-09-18T03:19:04.344Z,82.64
2022-09-18T03:20:06.963Z,82.57
2022-09-18T03:21:09.483Z,82.73
2022-09-18T03:22:10.991Z,82.57
2022-09-18T03:23:13.841Z,82.67
2022-09-18T03:24:15.391Z,82.60
2022-09-18T03:25:17.888Z,82.62
2022-09-18T03:26:19.455Z,82.59
2022-09-18T03:27:21.937Z,83.03
2022-09-18T03:28:23.451Z,82.65
2022-09-18T03:29:26.072Z,82.60
2022-09-18T03:30:27.802Z,82.56
2022-09-18T03:31:30.402Z,82.56
2022-09-18T03:32:33.259Z,82.66
2022-09-18T03:33:37.887Z,82.60
2022-09-18T03:34:39.439Z,82.57
2022-09-18T03:35:43.402Z,82.71
2022-09-18T03:36:46.971Z,82.76
2022-09-18T03:37:48.872Z,82.70
2022-09-18T03:38:51.414Z,82.70
2022-09-18T03:39:53.930Z,82.66
2022-09-18T03:40:55.510Z,82.66
2022-09-18T03:41:58.111Z,82.63
2022-09-18T03:42:59.639Z,82.50
2022-09-18T03:44:03.672Z,82.57
2022-09-18T03:45:06.726Z,82.63
2022-09-18T03:46:09.263Z,82.64
2022-09-18T03:47:10.879Z,82.44
2022-09-18T03:48:14.679Z,82.78
2022-09-18T03:49:16.206Z,82.67
2022-09-18T03:50:18.936Z,82.50
2022-09-18T03:51:21.112Z,82.46
2022-09-18T03:52:23.617Z,82.65
2022-09-18T03:53:25.918Z,82.64
2022-09-18T03:54:28.808Z,82.66
2022-09-18T03:55:30.428Z,82.94
2022-09-18T03:56:32.988Z,82.95
2022-09-18T03:57:34.530Z,82.79
2022-09-18T03:58:37.008Z,83.02
2022-09-18T03:59:38.541Z,82.91
2022-09-18T04:00:42.074Z,82.93
2022-09-18T04:01:43.702Z,82.99
2022-09-18T04:02:46.301Z,82.71
2022-09-18T04:03:49.598Z,82.98
2022-09-18T04:04:53.769Z,82.79
2022-09-18T04:05:55.434Z,82.84
2022-09-18T04:06:57.980Z,83.12
2022-09-18T04:07:59.726Z,82.78
2022-09-18T04:09:02.332Z,82.83
2022-09-18T04:10:04.692Z,83.25
2022-09-18T04:11:07.235Z,83.23
2022-09-18T04:12:08.757Z,83.14
2022-09-18T04:13:11.260Z,83.24
2022-09-18T04:14:14.274Z,83.06
2022-09-18T04:15:17.352Z,83.18
2022-09-18T04:16:18.904Z,83.28
2022-09-18T04:17:21.593Z,83.24
2022-09-18T04:18:23.695Z,83.19
2022-09-18T04:19:27.532Z,83.56
2022-09-18T04:20:29.202Z,83.28
2022-09-18T04:21:32.561Z,83.38
2022-09-18T04:22:34.236Z,83.40
2022-09-18T04:23:36.773Z,83.39
2022-09-18T04:24:39.578Z,83.52
2022-09-18T04:25:43.766Z,83.36
2022-09-18T04:26:45.290Z,83.45
2022-09-18T04:27:47.781Z,83.62
2022-09-18T04:28:49.338Z,83.39
2022-09-18T04:29:51.841Z,83.54
2022-09-18T04:30:53.499Z,83.63
2022-09-18T04:31:55.996Z,83.63
2022-09-18T04:32:57.599Z,83.70
2022-09-18T04:34:00.106Z,83.56
2022-09-18T04:35:03.088Z,83.47
2022-09-18T04:36:05.815Z,83.42
2022-09-18T04:37:10.392Z,83.88
2022-09-18T04:38:13.218Z,83.81
2022-09-18T04:39:14.912Z,83.93
2022-09-18T04:40:17.598Z,83.89
2022-09-18T04:41:19.165Z,84.10
2022-09-18T04:42:21.607Z,84.13
2022-09-18T04:43:23.464Z,84.14
2022-09-18T04:44:26.119Z,84.04
2022-09-18T04:45:27.684Z,84.12
2022-09-18T04:46:30.235Z,84.35
2022-09-18T04:47:31.758Z,84.35
2022-09-18T04:48:37.995Z,84.32
2022-09-18T04:49:39.683Z,84.36
2022-09-18T04:50:43.487Z,84.53
2022-09-18T04:51:45.014Z,84.53
2022-09-18T04:52:47.495Z,84.57
2022-09-18T04:53:49.027Z,84.58
2022-09-18T04:54:51.517Z,84.55
2022-09-18T04:55:52.998Z,84.63
2022-09-18T04:56:55.456Z,84.86
2022-09-18T04:57:57.025Z,84.62
2022-09-18T04:58:59.873Z,84.72
2022-09-18T05:00:01.913Z,84.92
2022-09-18T05:01:16.365Z,84.89
2022-09-18T05:02:18.427Z,84.55
2022-09-18T05:03:22.468Z,84.86
2022-09-18T05:04:24.036Z,84.81
2022-09-18T05:05:27.656Z,85.06
2022-09-18T05:06:30.603Z,84.95
2022-09-18T05:07:33.197Z,84.87
2022-09-18T05:08:34.826Z,84.83
2022-09-18T05:09:37.500Z,85.15
2022-09-18T05:10:39.658Z,85.24
2022-09-18T05:11:42.174Z,85.15
2022-09-18T05:12:44.938Z,85.27
2022-09-18T05:13:48.875Z,85.04
2022-09-18T05:14:50.621Z,85.36
2022-09-18T05:15:55.531Z,85.16
2022-09-18T05:16:57.143Z,85.18
2022-09-18T05:18:00.962Z,85.34
2022-09-18T05:19:02.661Z,85.32
2022-09-18T05:20:06.018Z,85.46
2022-09-18T05:21:07.610Z,85.53
2022-09-18T05:22:11.458Z,85.50
2022-09-18T05:23:13.807Z,85.42
2022-09-18T05:24:17.384Z,85.24
2022-09-18T05:25:20.564Z,85.45
2022-09-18T05:26:23.028Z,85.32
2022-09-18T05:27:26.939Z,85.54
2022-09-18T05:28:29.734Z,85.52
2022-09-18T05:29:31.414Z,85.50
2022-09-18T05:30:33.911Z,85.65
2022-09-18T05:31:35.570Z,85.49
2022-09-18T05:32:38.065Z,85.84
2022-09-18T05:33:41.179Z,85.53
2022-09-18T05:34:43.838Z,85.79
2022-09-18T05:35:45.416Z,85.83
2022-09-18T05:36:48.218Z,85.65
2022-09-18T05:37:51.637Z,85.87
2022-09-18T05:38:54.140Z,85.84
2022-09-18T05:39:56.365Z,85.85
2022-09-18T05:41:01.518Z,85.49
2022-09-18T05:42:03.846Z,85.53
2022-09-18T05:43:07.216Z,86.00
2022-09-18T05:44:08.740Z,85.97
2022-09-18T05:45:12.044Z,85.94
2022-09-18T05:46:14.813Z,86.08
2022-09-18T05:47:17.380Z,85.87
2022-09-18T05:48:18.890Z,86.00
2022-09-18T05:49:21.389Z,85.95
2022-09-18T05:50:24.387Z,86.11
2022-09-18T05:51:26.878Z,85.88
2022-09-18T05:52:28.432Z,85.98
2022-09-18T05:53:32.371Z,85.83
2022-09-18T05:54:36.437Z,85.69
2022-09-18T05:55:39.016Z,85.88
2022-09-18T05:56:40.583Z,85.99
2022-09-18T05:57:43.070Z,85.95
2022-09-18T05:58:44.590Z,85.85
2022-09-18T05:59:47.129Z,85.76
2022-09-18T06:00:51.109Z,85.75
2022-09-18T06:01:53.597Z,85.73
2022-09-18T06:02:56.328Z,85.91
2022-09-18T06:04:02.547Z,85.84
2022-09-18T06:05:04.911Z,85.93
2022-09-18T06:06:08.148Z,85.75
2022-09-18T06:07:10.001Z,85.57
2022-09-18T06:08:13.296Z,85.78
2022-09-18T06:09:16.435Z,85.47
2022-09-18T06:10:20.488Z,85.73
2022-09-18T06:11:22.210Z,85.48
2022-09-18T06:12:24.944Z,85.83
2022-09-18T06:13:26.593Z,85.86
2022-09-18T06:14:29.169Z,85.79
2022-09-18T06:15:31.080Z,85.82
2022-09-18T06:16:34.408Z,85.86
2022-09-18T06:17:38.101Z,86.09
2022-09-18T06:18:40.554Z,85.83
2022-09-18T06:19:42.113Z,85.89
2022-09-18T06:20:45.505Z,85.79
2022-09-18T06:21:47.047Z,86.15
2022-09-18T06:22:49.598Z,85.95
2022-09-18T06:23:52.088Z,85.94
2022-09-18T06:24:54.971Z,85.87
2022-09-18T06:25:59.106Z,86.03
2022-09-18T06:27:00.634Z,85.69
2022-09-18T06:28:04.024Z,85.88
2022-09-18T06:29:05.589Z,85.98
2022-09-18T06:30:08.993Z,85.91
2022-09-18T06:31:11.527Z,85.96
2022-09-18T06:32:13.071Z,85.95
2022-09-18T06:33:15.712Z,85.97
2022-09-18T06:34:17.297Z,86.01
2022-09-18T06:35:19.762Z,85.94
2022-09-18T06:36:21.321Z,85.93
2022-09-18T06:37:24.002Z,85.88
2022-09-18T06:38:25.537Z,85.99
2022-09-18T06:39:28.300Z,86.26
2022-09-18T06:40:31.933Z,86.14
2022-09-18T06:41:34.477Z,85.90
2022-09-18T06:42:36.039Z,85.99
2022-09-18T06:43:38.507Z,86.10
2022-09-18T06:44:40.098Z,86.14
2022-09-18T06:45:42.733Z,86.10
2022-09-18T06:46:44.294Z,85.90
2022-09-18T06:47:46.799Z,85.67
2022-09-18T06:48:48.497Z,85.61
2022-09-18T06:49:51.058Z,86.01
2022-09-18T06:50:53.253Z,85.87
2022-09-18T06:51:55.785Z,86.09
2022-09-18T06:53:02.936Z,85.85
2022-09-18T06:54:06.225Z,85.97
2022-09-18T06:55:08.341Z,85.92
2022-09-18T06:56:12.183Z,85.86
2022-09-18T06:57:13.703Z,85.83
2022-09-18T06:58:17.384Z,86.06
2022-09-18T06:59:19.141Z,85.82
2022-09-18T07:00:22.577Z,85.80
2022-09-18T07:01:24.183Z,86.06
2022-09-18T07:02:26.750Z,85.80
2022-09-18T07:03:28.498Z,85.77
2022-09-18T07:04:30.983Z,85.88
2022-09-18T07:05:33.163Z,85.81
2022-09-18T07:06:35.717Z,85.77
2022-09-18T07:07:37.226Z,85.90
2022-09-18T07:08:39.685Z,85.81
2022-09-18T07:09:41.211Z,85.43
2022-09-18T07:10:43.864Z,85.69
2022-09-18T07:11:46.720Z,85.72
2022-09-18T07:12:49.831Z,85.66
2022-09-18T07:13:53.114Z,85.21
2022-09-18T07:14:55.744Z,85.19
2022-09-18T07:15:57.441Z,85.06
2022-09-18T07:17:00.045Z,84.99
2022-09-18T07:18:03.340Z,84.77
2022-09-18T07:19:05.984Z,84.87
2022-09-18T07:20:08.376Z,84.77
2022-09-18T07:21:11.172Z,84.76
2022-09-18T07:22:12.706Z,84.77
2022-09-18T07:23:15.239Z,84.88
2022-09-18T07:24:16.767Z,84.51
2022-09-18T07:25:19.245Z,84.58
2022-09-18T07:26:20.791Z,84.64
2022-09-18T07:27:24.666Z,84.56
2022-09-18T07:28:26.435Z,84.56
2022-09-18T07:29:28.931Z,84.56
2022-09-18T07:30:30.550Z,84.76
2022-09-18T07:31:35.815Z,84.44
2022-09-18T07:32:37.416Z,84.46
2022-09-18T07:33:40.417Z,84.04
2022-09-18T07:34:41.987Z,84.33
2022-09-18T07:35:44.461Z,84.14
2022-09-18T07:36:49.464Z,83.85
2022-09-18T07:37:51.976Z,84.13
2022-09-18T07:38:53.779Z,83.94
2022-09-18T07:39:56.300Z,83.93
2022-09-18T07:41:01.392Z,84.22
2022-09-18T07:42:08.751Z,83.75
2022-09-18T07:43:13.210Z,83.77
2022-09-18T07:44:14.748Z,83.89
2022-09-18T07:45:17.549Z,83.69
2022-09-18T07:46:19.432Z,83.72
2022-09-18T07:47:21.949Z,83.33
2022-09-18T07:48:24.165Z,83.22
2022-09-18T07:49:26.700Z,83.59
2022-09-18T07:50:28.566Z,83.11
2022-09-18T07:51:31.110Z,82.95
2022-09-18T07:52:32.633Z,82.83
2022-09-18T07:53:37.466Z,83.03
2022-09-18T07:54:38.988Z,82.56
2022-09-18T07:55:42.825Z,82.46
2022-09-18T07:56:46.866Z,82.53
2022-09-18T07:57:55.424Z,82.22
2022-09-18T07:58:59.319Z,82.29
2022-09-18T08:00:00.889Z,82.38
2022-09-18T08:01:09.068Z,82.49
2022-09-18T08:02:11.348Z,82.18
2022-09-18T08:03:15.150Z,82.09
2022-09-18T08:04:16.732Z,82.15
2022-09-18T08:05:19.192Z,82.11
2022-09-18T08:06:20.813Z,82.09
2022-09-18T08:07:25.848Z,81.71
2022-09-18T08:08:27.468Z,81.54
2022-09-18T08:09:30.060Z,81.58
2022-09-18T08:10:32.158Z,81.53
2022-09-18T08:11:34.687Z,81.30
2022-09-18T08:12:36.373Z,81.31
2022-09-18T08:13:39.203Z,81.36
2022-09-18T08:14:42.139Z,81.13
2022-09-18T08:15:44.636Z,81.23
2022-09-18T08:16:47.071Z,80.95
2022-09-18T08:17:49.608Z,81.03
2022-09-18T08:18:51.178Z,80.66
2022-09-18T08:19:53.692Z,81.06
2022-09-18T08:20:55.777Z,80.89
2022-09-18T08:21:58.255Z,80.76
2022-09-18T08:23:01.463Z,80.73
2022-09-18T08:24:04.423Z,80.98
2022-09-18T08:25:07.388Z,80.51
2022-09-18T08:26:10.127Z,80.54
2022-09-18T08:27:12.905Z,80.39
2022-09-18T08:28:15.648Z,80.59
2022-09-18T08:29:19.146Z,80.22
2022-09-18T08:30:23.230Z,80.15
2022-09-18T08:31:24.832Z,80.17
2022-09-18T08:32:27.371Z,80.26
2022-09-18T08:33:29.045Z,80.64
2022-09-18T08:34:31.642Z,80.31
2022-09-18T08:35:34.061Z,80.51
2022-09-18T08:36:36.609Z,80.39
2022-09-18T08:37:38.210Z,80.08
2022-09-18T08:38:40.686Z,80.30
2022-09-18T08:39:42.697Z,80.43
2022-09-18T08:41:08.868Z,80.13
2022-09-18T08:42:25.750Z,80.09
2022-09-18T08:43:44.325Z,80.37
2022-09-18T08:44:51.174Z,80.22
2022-09-18T08:46:00.581Z,80.44
2022-09-18T08:47:08.537Z,80.34
2022-09-18T08:48:15.920Z,80.36
2022-09-18T08:49:25.683Z,80.09
2022-09-18T08:50:29.587Z,80.11
2022-09-18T08:51:34.983Z,79.99
2022-09-18T08:52:41.565Z,80.03
2022-09-18T08:53:46.963Z,80.18
2022-09-18T08:54:56.254Z,80.20
2022-09-18T08:56:00.374Z,80.04
2022-09-18T08:57:15.520Z,79.95
2022-09-18T08:58:24.064Z,80.16
2022-09-18T08:59:38.236Z,80.14
2022-09-18T09:00:42.980Z,80.29
2022-09-18T09:01:56.322Z,80.18
2022-09-18T09:03:09.711Z,80.22
2022-09-18T09:04:16.122Z,80.31
2022-09-18T09:05:21.363Z,80.05
2022-09-18T09:06:33.277Z,80.16
2022-09-18T09:07:50.641Z,79.94
2022-09-18T09:09:09.679Z,79.96
2022-09-18T09:10:39.952Z,80.14
2022-09-18T09:11:50.050Z,80.22
2022-09-18T09:13:02.670Z,80.18
2022-09-18T09:14:45.851Z,80.44
2022-09-18T09:15:55.181Z,80.20
2022-09-18T09:17:04.375Z,80.24
2022-09-18T09:18:17.769Z,80.35
2022-09-18T09:19:34.758Z,80.21
2022-09-18T09:20:45.584Z,79.91
2022-09-18T09:21:56.900Z,80.18
2022-09-18T09:23:03.200Z,80.15
2022-09-18T09:24:21.099Z,80.29
2022-09-18T09:25:29.595Z,80.11
2022-09-18T09:26:32.256Z,80.00
2022-09-18T09:27:39.164Z,79.97
2022-09-18T09:28:51.303Z,79.79
2022-09-18T09:30:01.935Z,79.88
2022-09-18T09:31:08.864Z,79.69
2022-09-18T09:32:20.954Z,79.62
2022-09-18T09:33:27.754Z,80.13
2022-09-18T09:34:34.385Z,80.09
2022-09-18T09:35:42.108Z,80.16
2022-09-18T09:36:48.970Z,80.28
2022-09-18T09:37:52.767Z,80.39
2022-09-18T09:38:58.933Z,80.12
2022-09-18T09:40:08.608Z,80.38
2022-09-18T09:41:25.242Z,80.49
2022-09-18T09:42:31.054Z,80.16
2022-09-18T09:43:38.466Z,80.27
2022-09-18T09:44:44.763Z,80.18
2022-09-18T09:45:48.715Z,80.03
2022-09-18T09:47:01.268Z,80.19
2022-09-18T09:48:11.629Z,80.25
2022-09-18T09:49:18.197Z,79.98
2022-09-18T09:50:34.752Z,79.96
2022-09-18T09:51:49.167Z,79.85
2022-09-18T09:52:56.235Z,79.85
2022-09-18T09:54:00.045Z,79.51
2022-09-18T09:55:20.436Z,79.71
2022-09-18T09:56:29.420Z,79.67
2022-09-18T09:57:40.193Z,79.49
2022-09-18T09:58:53.100Z,79.17
2022-09-18T10:00:06.357Z,79.17
2022-09-18T10:01:14.105Z,78.98
2022-09-18T10:02:34.251Z,78.96
2022-09-18T10:03:47.727Z,78.68
2022-09-18T10:04:57.144Z,78.51
2022-09-18T10:06:11.319Z,78.24
2022-09-18T10:07:20.532Z,78.15
2022-09-18T10:08:27.548Z,78.46
2022-09-18T10:09:41.628Z,78.15
2022-09-18T10:10:49.241Z,78.10
2022-09-18T10:11:57.474Z,77.96
2022-09-18T10:13:03.662Z,77.74
2022-09-18T10:14:12.474Z,77.76
2022-09-18T10:15:19.419Z,77.69
2022-09-18T10:16:25.639Z,77.29
2022-09-18T10:17:34.887Z,77.38
2022-09-18T10:18:41.235Z,77.46
2022-09-18T10:19:44.412Z,77.12
2022-09-18T10:20:50.760Z,77.07
2022-09-18T10:21:55.909Z,76.71
2022-09-18T10:23:01.847Z,76.87
2022-09-18T10:24:15.980Z,76.76
2022-09-18T10:25:27.461Z,76.70
2022-09-18T10:26:34.553Z,76.67
2022-09-18T10:27:37.056Z,76.46
2022-09-18T10:28:39.554Z,76.40
2022-09-18T10:29:41.978Z,76.52
2022-09-18T10:31:01.369Z,76.49
2022-09-18T10:32:04.335Z,76.35
2022-09-18T10:33:30.721Z,76.01
2022-09-18T10:34:41.288Z,76.23
2022-09-18T10:35:45.276Z,75.92
2022-09-18T10:36:49.242Z,75.88
2022-09-18T10:37:50.797Z,75.76
2022-09-18T10:38:53.483Z,75.65
2022-09-18T10:39:57.551Z,76.02
2022-09-18T10:41:15.448Z,75.69
2022-09-18T10:42:20.540Z,75.62
2022-09-18T10:43:23.006Z,75.67
2022-09-18T10:44:28.875Z,75.44
2022-09-18T10:45:36.230Z,75.63
2022-09-18T10:46:40.900Z,75.67
2022-09-18T10:47:44.551Z,75.70
2022-09-18T10:48:46.168Z,75.62
2022-09-18T10:49:51.663Z,75.59
2022-09-18T10:50:56.246Z,75.63
2022-09-18T10:52:35.978Z,75.49
2022-09-18T10:53:38.592Z,75.51
2022-09-18T10:54:41.187Z,75.45
2022-09-18T10:55:51.584Z,75.69
2022-09-18T10:57:18.208Z,75.08
2022-09-18T10:58:30.383Z,74.93
2022-09-18T10:59:34.622Z,74.89
2022-09-18T11:00:40.167Z,74.87
2022-09-18T11:01:44.908Z,74.46
2022-09-18T11:02:52.349Z,74.41
2022-09-18T11:04:02.438Z,73.83
2022-09-18T11:05:04.948Z,73.78
2022-09-18T11:06:16.348Z,73.59
2022-09-18T11:07:22.405Z,73.46
2022-09-18T11:08:30.978Z,73.29
2022-09-18T11:09:37.781Z,73.17
2022-09-18T11:10:39.469Z,73.05
2022-09-18T11:11:45.766Z,73.35
2022-09-18T11:12:54.971Z,73.01
2022-09-18T11:14:01.023Z,73.06
2022-09-18T11:15:07.488Z,72.99
2022-09-18T11:16:10.349Z,73.10
2022-09-18T11:17:24.393Z,72.78
2022-09-18T11:18:27.062Z,72.72
2022-09-18T11:19:32.831Z,72.61
2022-09-18T11:20:40.589Z,72.54
2022-09-18T11:21:47.035Z,72.42
2022-09-18T11:22:49.554Z,72.31
2022-09-18T11:24:02.337Z,72.22
2022-09-18T11:25:18.575Z,72.29
2022-09-18T11:26:28.852Z,72.20
2022-09-18T11:27:44.914Z,72.03
2022-09-18T11:29:05.368Z,71.96
2022-09-18T11:30:15.120Z,72.00
2022-09-18T11:31:20.415Z,72.08
2022-09-18T11:32:26.204Z,71.92
2022-09-18T11:33:33.005Z,71.84
2022-09-18T11:34:38.813Z,71.76
2022-09-18T11:35:45.370Z,71.95
2022-09-18T11:36:52.849Z,71.95
2022-09-18T11:37:58.420Z,71.87
2022-09-18T11:39:01.878Z,72.05
2022-09-18T11:40:07.799Z,72.02
2022-09-18T11:41:10.939Z,71.96
2022-09-18T11:42:15.084Z,72.17
2022-09-18T11:43:21.428Z,72.40
2022-09-18T11:44:27.509Z,72.57
2022-09-18T11:45:47.786Z,72.71
2022-09-18T11:47:02.189Z,72.85
2022-09-18T11:48:16.280Z,73.14
2022-09-18T11:49:23.966Z,73.23
2022-09-18T11:50:30.336Z,73.10
2022-09-18T11:51:39.312Z,73.09
2022-09-18T11:52:45.252Z,73.38
2022-09-18T11:53:51.896Z,73.24
2022-09-18T11:55:01.426Z,73.48
2022-09-18T11:56:09.733Z,73.66
2022-09-18T11:57:16.744Z,73.92
2022-09-18T11:58:27.074Z,74.22
2022-09-18T11:59:32.697Z,74.74
2022-09-18T12:00:43.370Z,74.72
2022-09-18T12:01:50.086Z,75.31
2022-09-18T12:03:01.333Z,75.87
2022-09-18T12:04:10.721Z,76.14
2022-09-18T12:05:23.337Z,76.64
2022-09-18T12:06:34.789Z,77.36
2022-09-18T12:07:43.382Z,77.59
2022-09-18T12:08:56.119Z,77.92
2022-09-18T12:10:06.211Z,77.91
2022-09-18T12:11:20.509Z,78.21
2022-09-18T12:12:27.458Z,78.02
2022-09-18T12:13:47.934Z,78.02
2022-09-18T12:15:00.258Z,78.25
2022-09-18T12:16:11.865Z,78.39
2022-09-18T12:17:22.002Z,78.71
2022-09-18T12:18:28.238Z,79.02
2022-09-18T12:19:36.706Z,78.90
2022-09-18T12:20:43.963Z,79.16
2022-09-18T12:21:52.391Z,79.20
2022-09-18T12:22:57.450Z,79.66
2022-09-18T12:24:00.867Z,79.63
2022-09-18T12:25:11.799Z,79.70
2022-09-18T12:26:21.248Z,79.80
2022-09-18T12:27:32.316Z,80.00
2022-09-18T12:28:42.657Z,79.95
2022-09-18T12:30:00.900Z,80.03
2022-09-18T12:31:11.057Z,80.01
2022-09-18T12:32:31.756Z,80.12
2022-09-18T12:33:41.569Z,80.06
2022-09-18T12:34:51.277Z,79.83
2022-09-18T12:36:09.262Z,79.85
2022-09-18T12:37:31.332Z,79.83
2022-09-18T12:38:55.072Z,80.00
2022-09-18T12:40:18.793Z,79.98
2022-09-18T12:41:35.474Z,80.05
2022-09-18T12:42:51.544Z,80.07
2022-09-18T12:44:13.640Z,80.23
2022-09-18T12:45:52.832Z,80.20
2022-09-18T12:47:15.063Z,80.44
2022-09-18T12:48:30.698Z,80.40
2022-09-18T12:49:50.721Z,80.14
2022-09-18T12:51:05.451Z,80.37
2022-09-18T12:52:27.071Z,80.08
2022-09-18T12:53:45.816Z,80.27
2022-09-18T12:55:06.917Z,80.23
2022-09-18T12:56:31.049Z,80.31
2022-09-18T12:57:51.243Z,80.30
2022-09-18T12:59:26.970Z,80.29
2022-09-18T13:00:30.689Z,80.43
2022-09-18T13:01:36.104Z,80.72
2022-09-18T13:02:55.257Z,80.53
2022-09-18T13:04:08.655Z,80.65
2022-09-18T13:05:17.095Z,80.48
2022-09-18T13:06:26.720Z,80.60
2022-09-18T13:07:33.090Z,80.65
2022-09-18T13:08:42.923Z,80.91
2022-09-18T13:10:03.618Z,81.08
2022-09-18T13:11:14.407Z,80.90
2022-09-18T13:12:24.589Z,81.10
2022-09-18T13:13:36.426Z,81.11
2022-09-18T13:14:43.127Z,81.09
2022-09-18T13:15:51.195Z,81.34
2022-09-18T13:16:58.144Z,81.54
2022-09-18T13:18:21.825Z,81.19
2022-09-18T13:19:27.994Z,81.20
2022-09-18T13:20:35.046Z,81.67
2022-09-18T13:21:41.585Z,81.48
2022-09-18T13:22:50.890Z,81.87
2022-09-18T13:23:56.531Z,81.70
2022-09-18T13:24:58.523Z,81.85
2022-09-18T13:26:02.406Z,82.02
2022-09-18T13:27:09.629Z,82.14
2022-09-18T13:28:17.660Z,82.15
2022-09-18T13:29:47.398Z,82.31
2022-09-18T13:31:12.116Z,82.23
2022-09-18T13:32:17.097Z,82.39
2022-09-18T13:33:24.410Z,82.35
2022-09-18T13:34:26.036Z,82.68
2022-09-18T13:35:31.062Z,82.50
2022-09-18T13:36:36.448Z,82.70
2022-09-18T13:37:38.128Z,82.53
2022-09-18T13:38:46.953Z,82.48
2022-09-18T13:40:09.459Z,82.73
2022-09-18T13:41:12.132Z,82.64
2022-09-18T13:42:14.935Z,82.62
2022-09-18T13:43:34.874Z,82.89
2022-09-18T13:44:39.078Z,82.88
2022-09-18T13:45:40.734Z,82.82
2022-09-18T13:46:44.769Z,82.91
2022-09-18T13:48:01.674Z,82.94
2022-09-18T13:49:19.022Z,83.26
2022-09-18T13:50:20.818Z,83.03
2022-09-18T13:51:30.628Z,83.17
2022-09-18T13:52:42.232Z,83.52
2022-09-18T13:53:45.429Z,83.02
2022-09-18T13:55:00.024Z,83.19
2022-09-18T13:56:03.953Z,83.19
2022-09-18T13:57:20.575Z,83.26
2022-09-18T13:58:52.414Z,83.00
2022-09-18T13:59:55.714Z,83.30
2022-09-18T14:00:59.009Z,83.34
2022-09-18T14:02:02.472Z,83.39
2022-09-18T14:03:33.986Z,83.33
2022-09-18T14:05:28.391Z,83.52
2022-09-18T14:06:44.099Z,83.12
2022-09-18T14:08:31.173Z,83.62
2022-09-18T14:09:51.333Z,83.41
2022-09-18T14:11:15.389Z,83.38
2022-09-18T14:12:18.485Z,83.44
2022-09-18T14:13:43.961Z,83.42
2022-09-18T14:15:02.560Z,83.07
2022-09-18T14:16:09.996Z,83.45
2022-09-18T14:17:15.061Z,83.45
2022-09-18T14:18:22.220Z,83.44